sensor_id;sensor_type;location;lat;lon;timestamp;temperature;humidity
33837;DHT22;20140;49.356;8.812;2023-05-29T00:00:02;13.00;99.90
33837;DHT22;20140;49.356;8.812;2023-05-29T00:02:32;13.00;99.90
33837;DHT22;20140;49.356;8.812;2023-05-29T00:04:57;13.10;99.90
33837;DHT22;20140;49.356;8.812;2023-05-29T00:07:23;13.20;99.90
33837;DHT22;20140;49.356;8.812;2023-05-29T00:09:48;13.20;99.90
33837;DHT22;20140;49.356;8.812;2023-05-29T00:12:14;13.10;99.90
33837;DHT22;20140;49.356;8.812;2023-05-29T00:14:40;13.10;99.90
33837;DHT22;20140;49.356;8.812;2023-05-29T00:17:06;12.90;99.90
33837;DHT22;20140;49.356;8.812;2023-05-29T00:19:31;12.90;99.90
33837;DHT22;20140;49.356;8.812;2023-05-29T00:21:57;12.80;99.90
33837;DHT22;20140;49.356;8.812;2023-05-29T00:24:23;12.70;99.90
33837;DHT22;20140;49.356;8.812;2023-05-29T00:26:48;12.60;99.90
33837;DHT22;20140;49.356;8.812;2023-05-29T00:29:14;12.50;99.90
33837;DHT22;20140;49.356;8.812;2023-05-29T00:31:40;12.50;99.90
33837;DHT22;20140;49.356;8.812;2023-05-29T00:34:05;12.50;99.90
33837;DHT22;20140;49.356;8.812;2023-05-29T00:36:31;12.70;99.90
33837;DHT22;20140;49.356;8.812;2023-05-29T00:38:57;12.70;99.90
33837;DHT22;20140;49.356;8.812;2023-05-29T00:41:22;12.60;99.90
33837;DHT22;20140;49.356;8.812;2023-05-29T00:43:48;12.60;99.90
33837;DHT22;20140;49.356;8.812;2023-05-29T00:46:15;12.40;99.90
33837;DHT22;20140;49.356;8.812;2023-05-29T00:48:44;12.40;99.90
33837;DHT22;20140;49.356;8.812;2023-05-29T00:51:11;12.50;99.90
33837;DHT22;20140;49.356;8.812;2023-05-29T00:53:38;12.30;99.90
33837;DHT22;20140;49.356;8.812;2023-05-29T00:56:05;12.10;99.90
33837;DHT22;20140;49.356;8.812;2023-05-29T00:58:31;12.10;99.90
33837;DHT22;20140;49.356;8.812;2023-05-29T01:00:57;12.10;99.90
33837;DHT22;20140;49.356;8.812;2023-05-29T01:03:24;12.00;99.90
33837;DHT22;20140;49.356;8.812;2023-05-29T01:05:50;12.00;99.90
33837;DHT22;20140;49.356;8.812;2023-05-29T01:08:17;11.90;99.90
33837;DHT22;20140;49.356;8.812;2023-05-29T01:10:42;11.90;99.90
33837;DHT22;20140;49.356;8.812;2023-05-29T01:13:27;11.90;99.90
33837;DHT22;20140;49.356;8.812;2023-05-29T01:16:01;12.00;99.90
33837;DHT22;20140;49.356;8.812;2023-05-29T01:18:54;12.00;99.90
33837;DHT22;20140;49.356;8.812;2023-05-29T01:24:17;12.00;99.90
33837;DHT22;20140;49.356;8.812;2023-05-29T01:26:58;12.30;99.90
33837;DHT22;20140;49.356;8.812;2023-05-29T01:29:31;12.40;99.90
33837;DHT22;20140;49.356;8.812;2023-05-29T01:31:58;12.60;99.90
33837;DHT22;20140;49.356;8.812;2023-05-29T01:34:24;12.70;99.90
33837;DHT22;20140;49.356;8.812;2023-05-29T01:36:50;12.70;99.90
33837;DHT22;20140;49.356;8.812;2023-05-29T01:39:16;12.60;99.90
33837;DHT22;20140;49.356;8.812;2023-05-29T01:41:44;12.40;99.90
33837;DHT22;20140;49.356;8.812;2023-05-29T01:44:11;12.50;99.90
33837;DHT22;20140;49.356;8.812;2023-05-29T01:46:38;12.30;99.90
33837;DHT22;20140;49.356;8.812;2023-05-29T01:49:04;12.10;99.90
33837;DHT22;20140;49.356;8.812;2023-05-29T01:51:30;12.20;99.90
33837;DHT22;20140;49.356;8.812;2023-05-29T01:53:57;12.20;99.90
33837;DHT22;20140;49.356;8.812;2023-05-29T01:56:24;12.10;99.90
33837;DHT22;20140;49.356;8.812;2023-05-29T01:58:52;12.00;99.90
33837;DHT22;20140;49.356;8.812;2023-05-29T02:01:17;12.00;99.90
33837;DHT22;20140;49.356;8.812;2023-05-29T02:03:44;12.10;99.90
33837;DHT22;20140;49.356;8.812;2023-05-29T02:06:10;12.20;99.90
33837;DHT22;20140;49.356;8.812;2023-05-29T02:08:35;12.20;99.90
33837;DHT22;20140;49.356;8.812;2023-05-29T02:11:01;12.20;99.90
33837;DHT22;20140;49.356;8.812;2023-05-29T02:13:26;12.10;99.90
33837;DHT22;20140;49.356;8.812;2023-05-29T02:15:52;11.90;99.90
33837;DHT22;20140;49.356;8.812;2023-05-29T02:18:17;11.70;99.90
33837;DHT22;20140;49.356;8.812;2023-05-29T02:20:44;11.60;99.90
33837;DHT22;20140;49.356;8.812;2023-05-29T02:23:10;11.50;99.90
33837;DHT22;20140;49.356;8.812;2023-05-29T02:25:35;11.40;99.90
33837;DHT22;20140;49.356;8.812;2023-05-29T02:28:01;11.30;99.90
33837;DHT22;20140;49.356;8.812;2023-05-29T02:30:28;11.30;99.90
33837;DHT22;20140;49.356;8.812;2023-05-29T02:32:54;11.30;99.90
33837;DHT22;20140;49.356;8.812;2023-05-29T02:35:19;11.30;99.90
33837;DHT22;20140;49.356;8.812;2023-05-29T02:37:48;11.30;99.90
33837;DHT22;20140;49.356;8.812;2023-05-29T02:40:13;11.30;99.90
33837;DHT22;20140;49.356;8.812;2023-05-29T02:42:39;11.40;99.90
33837;DHT22;20140;49.356;8.812;2023-05-29T02:45:05;11.40;99.90
33837;DHT22;20140;49.356;8.812;2023-05-29T02:47:31;11.30;99.90
33837;DHT22;20140;49.356;8.812;2023-05-29T02:49:56;11.20;99.90
33837;DHT22;20140;49.356;8.812;2023-05-29T02:52:22;11.20;99.90
33837;DHT22;20140;49.356;8.812;2023-05-29T02:54:48;11.20;99.90
33837;DHT22;20140;49.356;8.812;2023-05-29T02:57:14;11.20;99.90
33837;DHT22;20140;49.356;8.812;2023-05-29T02:59:39;11.00;99.90
33837;DHT22;20140;49.356;8.812;2023-05-29T03:02:05;11.00;99.90
33837;DHT22;20140;49.356;8.812;2023-05-29T03:04:31;11.00;99.90
33837;DHT22;20140;49.356;8.812;2023-05-29T03:06:57;11.10;99.90
33837;DHT22;20140;49.356;8.812;2023-05-29T03:09:22;11.00;99.90
33837;DHT22;20140;49.356;8.812;2023-05-29T03:11:48;10.80;99.90
33837;DHT22;20140;49.356;8.812;2023-05-29T03:14:16;10.80;99.90
33837;DHT22;20140;49.356;8.812;2023-05-29T03:16:43;10.70;99.90
33837;DHT22;20140;49.356;8.812;2023-05-29T03:19:08;10.70;99.90
33837;DHT22;20140;49.356;8.812;2023-05-29T03:21:34;10.70;99.90
33837;DHT22;20140;49.356;8.812;2023-05-29T03:24:01;10.70;99.90
33837;DHT22;20140;49.356;8.812;2023-05-29T03:26:28;10.70;99.90
33837;DHT22;20140;49.356;8.812;2023-05-29T03:28:53;10.90;99.90
33837;DHT22;20140;49.356;8.812;2023-05-29T03:31:19;10.90;99.90
33837;DHT22;20140;49.356;8.812;2023-05-29T03:33:44;10.80;99.90
33837;DHT22;20140;49.356;8.812;2023-05-29T03:36:11;10.80;99.90
33837;DHT22;20140;49.356;8.812;2023-05-29T03:38:36;10.80;99.90
33837;DHT22;20140;49.356;8.812;2023-05-29T03:41:02;10.70;99.90
33837;DHT22;20140;49.356;8.812;2023-05-29T03:43:27;10.70;99.90
33837;DHT22;20140;49.356;8.812;2023-05-29T03:45:53;10.70;99.90
33837;DHT22;20140;49.356;8.812;2023-05-29T03:48:18;10.70;99.90
33837;DHT22;20140;49.356;8.812;2023-05-29T03:50:45;10.60;99.90
33837;DHT22;20140;49.356;8.812;2023-05-29T03:53:11;10.60;99.90
33837;DHT22;20140;49.356;8.812;2023-05-29T03:55:36;10.60;99.90
33837;DHT22;20140;49.356;8.812;2023-05-29T03:58:02;10.60;99.90
33837;DHT22;20140;49.356;8.812;2023-05-29T04:00:27;10.60;99.90
33837;DHT22;20140;49.356;8.812;2023-05-29T04:02:55;10.60;99.90
33837;DHT22;20140;49.356;8.812;2023-05-29T04:05:21;10.50;99.90
33837;DHT22;20140;49.356;8.812;2023-05-29T04:07:46;10.50;99.90
33837;DHT22;20140;49.356;8.812;2023-05-29T04:10:12;10.40;99.90
33837;DHT22;20140;49.356;8.812;2023-05-29T04:12:38;10.40;99.90
33837;DHT22;20140;49.356;8.812;2023-05-29T04:15:04;10.40;99.90
33837;DHT22;20140;49.356;8.812;2023-05-29T04:17:30;10.40;99.90
33837;DHT22;20140;49.356;8.812;2023-05-29T04:19:55;10.50;99.90
33837;DHT22;20140;49.356;8.812;2023-05-29T04:22:21;10.50;99.90
33837;DHT22;20140;49.356;8.812;2023-05-29T04:24:46;10.50;99.90
33837;DHT22;20140;49.356;8.812;2023-05-29T04:27:12;10.60;99.90
33837;DHT22;20140;49.356;8.812;2023-05-29T04:29:42;10.70;99.90
33837;DHT22;20140;49.356;8.812;2023-05-29T04:32:08;10.70;99.90
33837;DHT22;20140;49.356;8.812;2023-05-29T04:34:35;10.70;99.90
33837;DHT22;20140;49.356;8.812;2023-05-29T04:37:02;10.80;99.90
33837;DHT22;20140;49.356;8.812;2023-05-29T04:39:28;11.00;99.90
33837;DHT22;20140;49.356;8.812;2023-05-29T04:41:54;11.10;99.90
33837;DHT22;20140;49.356;8.812;2023-05-29T04:44:21;11.20;99.90
33837;DHT22;20140;49.356;8.812;2023-05-29T04:46:47;11.20;99.90
33837;DHT22;20140;49.356;8.812;2023-05-29T04:49:13;11.20;99.90
33837;DHT22;20140;49.356;8.812;2023-05-29T04:51:39;11.30;99.90
33837;DHT22;20140;49.356;8.812;2023-05-29T04:54:08;11.30;99.90
33837;DHT22;20140;49.356;8.812;2023-05-29T04:56:34;11.30;99.90
33837;DHT22;20140;49.356;8.812;2023-05-29T04:59:00;11.40;99.90
33837;DHT22;20140;49.356;8.812;2023-05-29T05:01:25;11.50;99.90
33837;DHT22;20140;49.356;8.812;2023-05-29T05:03:51;11.50;99.90
33837;DHT22;20140;49.356;8.812;2023-05-29T05:06:21;11.70;99.90
33837;DHT22;20140;49.356;8.812;2023-05-29T05:08:47;11.90;99.90
33837;DHT22;20140;49.356;8.812;2023-05-29T05:11:12;12.10;99.90
33837;DHT22;20140;49.356;8.812;2023-05-29T05:13:39;12.40;99.90
33837;DHT22;20140;49.356;8.812;2023-05-29T05:16:05;12.60;99.90
33837;DHT22;20140;49.356;8.812;2023-05-29T05:18:30;12.80;99.90
33837;DHT22;20140;49.356;8.812;2023-05-29T05:20:56;12.90;99.90
33837;DHT22;20140;49.356;8.812;2023-05-29T05:23:21;13.00;99.90
33837;DHT22;20140;49.356;8.812;2023-05-29T05:25:47;13.20;99.90
33837;DHT22;20140;49.356;8.812;2023-05-29T05:28:13;13.30;99.90
33837;DHT22;20140;49.356;8.812;2023-05-29T05:30:38;13.30;99.90
33837;DHT22;20140;49.356;8.812;2023-05-29T05:33:04;13.40;99.90
33837;DHT22;20140;49.356;8.812;2023-05-29T05:35:29;13.60;99.90
33837;DHT22;20140;49.356;8.812;2023-05-29T05:37:55;13.60;99.90
33837;DHT22;20140;49.356;8.812;2023-05-29T05:40:23;13.60;99.90
33837;DHT22;20140;49.356;8.812;2023-05-29T05:42:49;13.70;99.90
33837;DHT22;20140;49.356;8.812;2023-05-29T05:45:14;13.70;99.90
33837;DHT22;20140;49.356;8.812;2023-05-29T05:47:40;13.70;99.90
33837;DHT22;20140;49.356;8.812;2023-05-29T05:50:06;13.90;99.90
33837;DHT22;20140;49.356;8.812;2023-05-29T05:52:31;14.00;99.90
33837;DHT22;20140;49.356;8.812;2023-05-29T05:54:58;14.20;99.90
33837;DHT22;20140;49.356;8.812;2023-05-29T05:57:24;14.20;99.90
33837;DHT22;20140;49.356;8.812;2023-05-29T05:59:50;14.30;99.90
33837;DHT22;20140;49.356;8.812;2023-05-29T06:02:16;14.30;99.90
33837;DHT22;20140;49.356;8.812;2023-05-29T06:04:41;14.50;99.90
33837;DHT22;20140;49.356;8.812;2023-05-29T06:07:07;14.60;99.90
33837;DHT22;20140;49.356;8.812;2023-05-29T06:09:33;14.70;99.90
33837;DHT22;20140;49.356;8.812;2023-05-29T06:11:59;14.70;99.90
33837;DHT22;20140;49.356;8.812;2023-05-29T06:14:25;14.80;99.90
33837;DHT22;20140;49.356;8.812;2023-05-29T06:16:51;14.80;99.90
33837;DHT22;20140;49.356;8.812;2023-05-29T06:19:16;14.90;99.90
33837;DHT22;20140;49.356;8.812;2023-05-29T06:21:42;15.00;99.90
33837;DHT22;20140;49.356;8.812;2023-05-29T06:24:07;15.10;99.90
33837;DHT22;20140;49.356;8.812;2023-05-29T06:26:33;15.10;99.90
33837;DHT22;20140;49.356;8.812;2023-05-29T06:28:58;15.30;99.90
33837;DHT22;20140;49.356;8.812;2023-05-29T06:31:24;15.40;99.90
33837;DHT22;20140;49.356;8.812;2023-05-29T06:33:49;15.50;99.90
33837;DHT22;20140;49.356;8.812;2023-05-29T06:36:15;15.60;99.90
33837;DHT22;20140;49.356;8.812;2023-05-29T06:38:46;15.70;99.90
33837;DHT22;20140;49.356;8.812;2023-05-29T06:41:12;15.80;99.90
33837;DHT22;20140;49.356;8.812;2023-05-29T06:43:37;15.80;99.90
33837;DHT22;20140;49.356;8.812;2023-05-29T06:46:03;15.90;99.90
33837;DHT22;20140;49.356;8.812;2023-05-29T06:48:33;16.00;99.90
33837;DHT22;20140;49.356;8.812;2023-05-29T06:50:59;16.20;99.90
33837;DHT22;20140;49.356;8.812;2023-05-29T06:53:24;16.30;99.90
33837;DHT22;20140;49.356;8.812;2023-05-29T06:55:49;16.40;99.90
33837;DHT22;20140;49.356;8.812;2023-05-29T06:58:15;16.40;99.90
33837;DHT22;20140;49.356;8.812;2023-05-29T07:00:41;16.50;99.90
33837;DHT22;20140;49.356;8.812;2023-05-29T07:03:06;16.50;99.90
33837;DHT22;20140;49.356;8.812;2023-05-29T07:05:32;16.60;99.90
33837;DHT22;20140;49.356;8.812;2023-05-29T07:07:57;16.80;99.90
33837;DHT22;20140;49.356;8.812;2023-05-29T07:10:23;16.80;99.90
33837;DHT22;20140;49.356;8.812;2023-05-29T07:12:48;16.90;99.90
33837;DHT22;20140;49.356;8.812;2023-05-29T07:15:14;17.00;99.90
33837;DHT22;20140;49.356;8.812;2023-05-29T07:17:39;17.20;99.90
33837;DHT22;20140;49.356;8.812;2023-05-29T07:20:05;17.40;99.90
33837;DHT22;20140;49.356;8.812;2023-05-29T07:22:33;17.60;99.90
33837;DHT22;20140;49.356;8.812;2023-05-29T07:24:59;17.80;99.90
33837;DHT22;20140;49.356;8.812;2023-05-29T07:27:25;17.80;99.90
33837;DHT22;20140;49.356;8.812;2023-05-29T07:29:50;17.80;99.90
33837;DHT22;20140;49.356;8.812;2023-05-29T07:32:16;18.10;99.90
33837;DHT22;20140;49.356;8.812;2023-05-29T07:34:41;18.10;99.90
33837;DHT22;20140;49.356;8.812;2023-05-29T07:37:07;18.30;99.90
33837;DHT22;20140;49.356;8.812;2023-05-29T07:39:34;18.40;99.90
33837;DHT22;20140;49.356;8.812;2023-05-29T07:42:01;18.50;99.90
33837;DHT22;20140;49.356;8.812;2023-05-29T07:44:27;18.60;99.90
33837;DHT22;20140;49.356;8.812;2023-05-29T07:46:52;18.60;99.90
33837;DHT22;20140;49.356;8.812;2023-05-29T07:49:19;18.70;99.90
33837;DHT22;20140;49.356;8.812;2023-05-29T07:51:45;18.90;99.90
33837;DHT22;20140;49.356;8.812;2023-05-29T07:54:11;18.90;99.90
33837;DHT22;20140;49.356;8.812;2023-05-29T07:56:36;19.00;99.90
33837;DHT22;20140;49.356;8.812;2023-05-29T07:59:02;19.20;99.90
33837;DHT22;20140;49.356;8.812;2023-05-29T08:01:28;19.30;99.90
33837;DHT22;20140;49.356;8.812;2023-05-29T08:03:54;19.40;99.90
33837;DHT22;20140;49.356;8.812;2023-05-29T08:06:20;19.50;99.90
33837;DHT22;20140;49.356;8.812;2023-05-29T08:08:46;19.50;99.90
33837;DHT22;20140;49.356;8.812;2023-05-29T08:11:11;19.50;99.90
33837;DHT22;20140;49.356;8.812;2023-05-29T08:13:37;19.60;99.90
33837;DHT22;20140;49.356;8.812;2023-05-29T08:16:03;19.70;99.90
33837;DHT22;20140;49.356;8.812;2023-05-29T08:18:30;19.90;99.90
33837;DHT22;20140;49.356;8.812;2023-05-29T08:20:56;19.90;99.90
33837;DHT22;20140;49.356;8.812;2023-05-29T08:23:22;20.00;99.90
33837;DHT22;20140;49.356;8.812;2023-05-29T08:25:48;20.10;99.90
33837;DHT22;20140;49.356;8.812;2023-05-29T08:28:15;20.20;99.90
33837;DHT22;20140;49.356;8.812;2023-05-29T08:30:40;20.30;99.90
33837;DHT22;20140;49.356;8.812;2023-05-29T08:33:06;20.40;99.90
33837;DHT22;20140;49.356;8.812;2023-05-29T08:35:32;20.50;99.90
33837;DHT22;20140;49.356;8.812;2023-05-29T08:37:58;20.60;99.90
33837;DHT22;20140;49.356;8.812;2023-05-29T08:40:24;20.60;99.90
33837;DHT22;20140;49.356;8.812;2023-05-29T08:42:58;20.80;99.90
33837;DHT22;20140;49.356;8.812;2023-05-29T08:45:25;21.00;99.90
33837;DHT22;20140;49.356;8.812;2023-05-29T08:47:52;21.00;99.60
33837;DHT22;20140;49.356;8.812;2023-05-29T08:50:20;21.10;99.90
33837;DHT22;20140;49.356;8.812;2023-05-29T08:52:47;21.30;99.90
33837;DHT22;20140;49.356;8.812;2023-05-29T08:55:13;21.40;98.90
33837;DHT22;20140;49.356;8.812;2023-05-29T08:57:39;21.70;98.50
33837;DHT22;20140;49.356;8.812;2023-05-29T09:00:05;21.70;99.60
33837;DHT22;20140;49.356;8.812;2023-05-29T09:02:37;21.80;99.20
33837;DHT22;20140;49.356;8.812;2023-05-29T09:05:03;22.00;99.60
33837;DHT22;20140;49.356;8.812;2023-05-29T09:07:29;22.00;97.10
33837;DHT22;20140;49.356;8.812;2023-05-29T09:09:55;22.10;98.80
33837;DHT22;20140;49.356;8.812;2023-05-29T09:12:21;22.10;98.20
33837;DHT22;20140;49.356;8.812;2023-05-29T09:14:47;22.20;98.40
33837;DHT22;20140;49.356;8.812;2023-05-29T09:17:13;22.30;97.40
33837;DHT22;20140;49.356;8.812;2023-05-29T09:19:40;22.30;96.20
33837;DHT22;20140;49.356;8.812;2023-05-29T09:22:08;22.30;95.70
33837;DHT22;20140;49.356;8.812;2023-05-29T09:24:36;22.30;95.60
33837;DHT22;20140;49.356;8.812;2023-05-29T09:27:03;22.40;96.60
33837;DHT22;20140;49.356;8.812;2023-05-29T09:29:45;22.60;97.20
33837;DHT22;20140;49.356;8.812;2023-05-29T09:32:15;22.60;95.10
33837;DHT22;20140;49.356;8.812;2023-05-29T09:34:42;22.70;95.90
33837;DHT22;20140;49.356;8.812;2023-05-29T09:37:08;22.70;95.10
33837;DHT22;20140;49.356;8.812;2023-05-29T09:39:50;22.80;96.00
33837;DHT22;20140;49.356;8.812;2023-05-29T09:42:18;22.80;94.60
33837;DHT22;20140;49.356;8.812;2023-05-29T09:44:50;23.00;96.00
33837;DHT22;20140;49.356;8.812;2023-05-29T09:47:19;23.00;96.20
33837;DHT22;20140;49.356;8.812;2023-05-29T09:49:46;23.10;94.60
33837;DHT22;20140;49.356;8.812;2023-05-29T09:52:15;23.00;96.00
33837;DHT22;20140;49.356;8.812;2023-05-29T09:54:45;23.10;95.80
33837;DHT22;20140;49.356;8.812;2023-05-29T09:57:13;23.30;93.80
33837;DHT22;20140;49.356;8.812;2023-05-29T09:59:41;23.40;92.20
33837;DHT22;20140;49.356;8.812;2023-05-29T10:02:10;23.60;94.60
33837;DHT22;20140;49.356;8.812;2023-05-29T10:04:37;23.50;94.00
33837;DHT22;20140;49.356;8.812;2023-05-29T10:07:08;23.50;93.90
33837;DHT22;20140;49.356;8.812;2023-05-29T10:09:40;23.60;92.70
33837;DHT22;20140;49.356;8.812;2023-05-29T10:12:07;23.70;96.00
33837;DHT22;20140;49.356;8.812;2023-05-29T10:14:34;23.50;92.80
33837;DHT22;20140;49.356;8.812;2023-05-29T10:17:03;23.60;94.30
33837;DHT22;20140;49.356;8.812;2023-05-29T10:19:32;23.80;94.50
33837;DHT22;20140;49.356;8.812;2023-05-29T10:22:00;23.80;94.70
33837;DHT22;20140;49.356;8.812;2023-05-29T10:24:27;23.80;94.30
33837;DHT22;20140;49.356;8.812;2023-05-29T10:26:55;24.00;95.30
33837;DHT22;20140;49.356;8.812;2023-05-29T10:29:46;24.10;94.90
33837;DHT22;20140;49.356;8.812;2023-05-29T10:32:27;24.20;92.20
33837;DHT22;20140;49.356;8.812;2023-05-29T10:37:51;24.20;93.40
33837;DHT22;20140;49.356;8.812;2023-05-29T10:40:26;24.30;92.10
33837;DHT22;20140;49.356;8.812;2023-05-29T10:42:52;24.30;92.60
33837;DHT22;20140;49.356;8.812;2023-05-29T10:50:44;24.30;90.20
33837;DHT22;20140;49.356;8.812;2023-05-29T10:53:10;24.50;89.40
33837;DHT22;20140;49.356;8.812;2023-05-29T10:55:40;24.50;90.80
33837;DHT22;20140;49.356;8.812;2023-05-29T10:58:06;24.60;90.00
33837;DHT22;20140;49.356;8.812;2023-05-29T11:00:32;24.40;85.40
33837;DHT22;20140;49.356;8.812;2023-05-29T11:03:02;24.50;89.40
33837;DHT22;20140;49.356;8.812;2023-05-29T11:05:28;24.60;89.30
33837;DHT22;20140;49.356;8.812;2023-05-29T11:07:58;24.80;87.30
33837;DHT22;20140;49.356;8.812;2023-05-29T11:11:03;25.10;89.60
33837;DHT22;20140;49.356;8.812;2023-05-29T11:13:36;25.10;89.10
33837;DHT22;20140;49.356;8.812;2023-05-29T11:16:36;24.90;85.00
33837;DHT22;20140;49.356;8.812;2023-05-29T11:19:09;25.10;88.50
33837;DHT22;20140;49.356;8.812;2023-05-29T11:22:04;25.10;89.50
33837;DHT22;20140;49.356;8.812;2023-05-29T11:24:32;24.90;85.50
33837;DHT22;20140;49.356;8.812;2023-05-29T11:26:58;24.90;83.30
33837;DHT22;20140;49.356;8.812;2023-05-29T11:29:29;25.20;85.60
33837;DHT22;20140;49.356;8.812;2023-05-29T11:32:01;25.30;84.50
33837;DHT22;20140;49.356;8.812;2023-05-29T11:34:28;25.40;82.50
33837;DHT22;20140;49.356;8.812;2023-05-29T11:36:59;25.50;84.90
33837;DHT22;20140;49.356;8.812;2023-05-29T11:39:24;25.00;80.60
33837;DHT22;20140;49.356;8.812;2023-05-29T11:41:51;25.30;82.30
33837;DHT22;20140;49.356;8.812;2023-05-29T11:44:17;25.20;77.20
33837;DHT22;20140;49.356;8.812;2023-05-29T11:46:43;25.50;80.70
33837;DHT22;20140;49.356;8.812;2023-05-29T11:49:08;25.70;78.80
33837;DHT22;20140;49.356;8.812;2023-05-29T11:51:34;25.60;75.40
33837;DHT22;20140;49.356;8.812;2023-05-29T11:54:00;25.80;80.00
33837;DHT22;20140;49.356;8.812;2023-05-29T11:56:27;26.10;78.70
33837;DHT22;20140;49.356;8.812;2023-05-29T11:58:53;26.10;79.50
33837;DHT22;20140;49.356;8.812;2023-05-29T12:01:22;26.30;81.60
33837;DHT22;20140;49.356;8.812;2023-05-29T12:03:49;26.40;79.30
33837;DHT22;20140;49.356;8.812;2023-05-29T12:06:14;26.50;78.20
33837;DHT22;20140;49.356;8.812;2023-05-29T12:08:40;26.50;75.70
33837;DHT22;20140;49.356;8.812;2023-05-29T12:11:06;26.60;77.70
33837;DHT22;20140;49.356;8.812;2023-05-29T12:13:32;26.60;74.80
33837;DHT22;20140;49.356;8.812;2023-05-29T12:16:00;26.70;74.60
33837;DHT22;20140;49.356;8.812;2023-05-29T12:18:26;26.70;71.20
33837;DHT22;20140;49.356;8.812;2023-05-29T12:21:00;26.70;75.70
33837;DHT22;20140;49.356;8.812;2023-05-29T12:23:27;26.70;72.60
33837;DHT22;20140;49.356;8.812;2023-05-29T12:25:52;26.90;70.00
33837;DHT22;20140;49.356;8.812;2023-05-29T12:28:18;27.00;74.30
33837;DHT22;20140;49.356;8.812;2023-05-29T12:30:46;27.40;76.70
33837;DHT22;20140;49.356;8.812;2023-05-29T12:33:34;27.30;70.50
33837;DHT22;20140;49.356;8.812;2023-05-29T12:36:05;27.70;71.90
33837;DHT22;20140;49.356;8.812;2023-05-29T12:38:32;27.60;68.20
33837;DHT22;20140;49.356;8.812;2023-05-29T12:40:57;27.90;71.90
33837;DHT22;20140;49.356;8.812;2023-05-29T12:43:23;27.90;75.80
33837;DHT22;20140;49.356;8.812;2023-05-29T12:45:54;28.00;63.90
33837;DHT22;20140;49.356;8.812;2023-05-29T12:48:27;28.00;69.50
33837;DHT22;20140;49.356;8.812;2023-05-29T12:50:52;28.10;66.70
33837;DHT22;20140;49.356;8.812;2023-05-29T12:53:18;27.90;64.80
33837;DHT22;20140;49.356;8.812;2023-05-29T12:55:44;28.30;65.00
33837;DHT22;20140;49.356;8.812;2023-05-29T12:58:12;28.80;62.50
33837;DHT22;20140;49.356;8.812;2023-05-29T13:00:42;28.90;58.90
33837;DHT22;20140;49.356;8.812;2023-05-29T13:03:08;29.00;64.80
33837;DHT22;20140;49.356;8.812;2023-05-29T13:05:34;28.90;63.50
33837;DHT22;20140;49.356;8.812;2023-05-29T13:08:00;28.90;57.60
33837;DHT22;20140;49.356;8.812;2023-05-29T13:10:27;28.80;60.40
33837;DHT22;20140;49.356;8.812;2023-05-29T13:12:54;28.90;62.30
33837;DHT22;20140;49.356;8.812;2023-05-29T13:15:21;28.60;57.80
33837;DHT22;20140;49.356;8.812;2023-05-29T13:17:47;29.10;58.20
33837;DHT22;20140;49.356;8.812;2023-05-29T13:20:13;29.90;58.10
33837;DHT22;20140;49.356;8.812;2023-05-29T13:22:41;29.80;55.10
33837;DHT22;20140;49.356;8.812;2023-05-29T13:25:08;30.50;59.10
33837;DHT22;20140;49.356;8.812;2023-05-29T13:27:38;31.00;56.70
33837;DHT22;20140;49.356;8.812;2023-05-29T13:30:05;31.20;57.80
33837;DHT22;20140;49.356;8.812;2023-05-29T13:32:31;31.20;55.60
33837;DHT22;20140;49.356;8.812;2023-05-29T13:34:56;31.30;57.30
33837;DHT22;20140;49.356;8.812;2023-05-29T13:37:22;31.40;54.90
33837;DHT22;20140;49.356;8.812;2023-05-29T13:39:48;32.50;55.10
33837;DHT22;20140;49.356;8.812;2023-05-29T13:42:13;32.30;52.90
33837;DHT22;20140;49.356;8.812;2023-05-29T13:44:39;30.70;50.20
33837;DHT22;20140;49.356;8.812;2023-05-29T13:47:06;30.50;50.80
33837;DHT22;20140;49.356;8.812;2023-05-29T13:49:32;31.70;48.70
33837;DHT22;20140;49.356;8.812;2023-05-29T13:51:57;32.10;55.40
33837;DHT22;20140;49.356;8.812;2023-05-29T13:54:23;32.50;52.40
33837;DHT22;20140;49.356;8.812;2023-05-29T13:56:48;32.30;49.70
33837;DHT22;20140;49.356;8.812;2023-05-29T13:59:14;33.70;49.70
33837;DHT22;20140;49.356;8.812;2023-05-29T14:01:40;33.10;51.40
33837;DHT22;20140;49.356;8.812;2023-05-29T14:04:06;33.30;53.90
33837;DHT22;20140;49.356;8.812;2023-05-29T14:06:33;33.80;51.70
33837;DHT22;20140;49.356;8.812;2023-05-29T14:09:00;34.00;48.50
33837;DHT22;20140;49.356;8.812;2023-05-29T14:11:26;33.10;48.20
33837;DHT22;20140;49.356;8.812;2023-05-29T14:13:52;33.30;51.40
33837;DHT22;20140;49.356;8.812;2023-05-29T14:16:18;33.50;50.20
33837;DHT22;20140;49.356;8.812;2023-05-29T14:18:43;33.70;48.60
33837;DHT22;20140;49.356;8.812;2023-05-29T14:21:09;33.00;46.40
33837;DHT22;20140;49.356;8.812;2023-05-29T14:23:35;32.60;45.80
33837;DHT22;20140;49.356;8.812;2023-05-29T14:26:01;32.70;44.90
33837;DHT22;20140;49.356;8.812;2023-05-29T14:28:27;31.60;48.30
33837;DHT22;20140;49.356;8.812;2023-05-29T14:30:52;30.50;49.10
33837;DHT22;20140;49.356;8.812;2023-05-29T14:33:18;31.40;50.20
33837;DHT22;20140;49.356;8.812;2023-05-29T14:35:43;31.90;53.40
33837;DHT22;20140;49.356;8.812;2023-05-29T14:38:09;32.30;49.60
33837;DHT22;20140;49.356;8.812;2023-05-29T14:40:34;33.60;46.50
33837;DHT22;20140;49.356;8.812;2023-05-29T14:43:01;33.70;45.90
33837;DHT22;20140;49.356;8.812;2023-05-29T14:45:27;33.40;47.70
33837;DHT22;20140;49.356;8.812;2023-05-29T14:47:52;33.70;48.30
33837;DHT22;20140;49.356;8.812;2023-05-29T14:50:18;30.70;44.90
33837;DHT22;20140;49.356;8.812;2023-05-29T14:52:43;30.20;47.50
33837;DHT22;20140;49.356;8.812;2023-05-29T14:55:09;30.00;47.10
33837;DHT22;20140;49.356;8.812;2023-05-29T14:57:34;29.90;47.50
33837;DHT22;20140;49.356;8.812;2023-05-29T15:00:01;29.80;49.00
33837;DHT22;20140;49.356;8.812;2023-05-29T15:02:26;31.40;48.50
33837;DHT22;20140;49.356;8.812;2023-05-29T15:04:52;31.20;46.70
33837;DHT22;20140;49.356;8.812;2023-05-29T15:07:18;31.60;47.70
33837;DHT22;20140;49.356;8.812;2023-05-29T15:09:43;31.10;47.00
33837;DHT22;20140;49.356;8.812;2023-05-29T15:12:09;30.80;45.20
33837;DHT22;20140;49.356;8.812;2023-05-29T15:14:35;31.20;50.10
33837;DHT22;20140;49.356;8.812;2023-05-29T15:17:01;31.00;50.00
33837;DHT22;20140;49.356;8.812;2023-05-29T15:19:26;32.00;46.30
33837;DHT22;20140;49.356;8.812;2023-05-29T15:21:52;32.50;46.50
33837;DHT22;20140;49.356;8.812;2023-05-29T15:24:18;32.60;48.90
33837;DHT22;20140;49.356;8.812;2023-05-29T15:26:44;31.80;47.30
33837;DHT22;20140;49.356;8.812;2023-05-29T15:29:09;32.10;46.90
33837;DHT22;20140;49.356;8.812;2023-05-29T15:31:36;30.80;47.50
33837;DHT22;20140;49.356;8.812;2023-05-29T15:34:01;29.50;45.30
33837;DHT22;20140;49.356;8.812;2023-05-29T15:36:27;30.00;53.00
33837;DHT22;20140;49.356;8.812;2023-05-29T15:38:54;31.20;45.90